Time;durP1;ratioP1;P1;durP2;ratioP2;P2;SDS_P1;SDS_P2;PMS_P1;PMS_P2;Temp;Humidity;BMP_temperature;BMP_pressure;BME280_temperature;BME280_humidity;BME280_pressure;Samples;Min_cycle;Max_cycle;Signal;HPM_P1;HPM_P2
2022/10/24 00:01:35;;;;;;;1.35;0.32;;;;;;;;;;5068551;28;20052;-93
2022/10/24 00:04:04;;;;;;;1.10;0.45;;;;;;;;;;5060235;28;20057;-92
2022/10/24 00:49:16;;;;;;;0.15;0.13;;;;;;;;;;5058167;28;21273;-91
2022/10/24 00:51:45;;;;;;;1.58;0.57;;;;;;;;;;5044662;28;20053;-92
2022/10/24 00:54:14;;;;;;;0.35;0.30;;;;;;;;;;5043507;28;20048;-91
2022/10/24 00:56:45;;;;;;;0.73;0.22;;;;;;;;;;5046294;28;20050;-91
2022/10/24 00:59:14;;;;;;;0.38;0.35;;;;;;;;;;5050759;28;20063;-92
2022/10/24 01:01:43;;;;;;;0.60;0.17;;;;;;;;;;5044588;28;20052;-91
2022/10/24 01:04:12;;;;;;;1.45;0.20;;;;;;;;;;5044574;28;20140;-91
2022/10/24 01:06:46;;;;;;;1.85;1.13;;;;;;;;;;5041871;28;20041;-92
2022/10/24 01:09:19;;;;;;;1.13;0.68;;;;;;;;;;5047860;28;20395;-91
2022/10/24 01:11:56;;;;;;;1.88;0.35;;;;;;;;;;5034809;28;20049;-91
2022/10/24 01:14:28;;;;;;;1.55;1.45;;;;;;;;;;5032633;28;20041;-90
2022/10/24 01:16:59;;;;;;;3.95;0.28;;;;;;;;;;5042314;28;20060;-91
2022/10/24 01:19:33;;;;;;;1.63;0.50;;;;;;;;;;5045622;28;20065;-91
2022/10/24 01:22:05;;;;;;;0.13;0.13;;;;;;;;;;5044941;28;20064;-91
2022/10/24 01:24:39;;;;;;;1.05;0.63;;;;;;;;;;5048018;28;20052;-91
2022/10/24 01:27:26;;;;;;;1.10;0.20;;;;;;;;;;5049110;28;20482;-91
2022/10/24 01:30:00;;;;;;;0.35;0.30;;;;;;;;;;5049266;28;20056;-91
2022/10/24 01:32:32;;;;;;;1.92;0.45;;;;;;;;;;5034593;28;20506;-91
2022/10/24 01:35:03;;;;;;;1.90;0.55;;;;;;;;;;5048139;28;20045;-91
2022/10/24 01:37:34;;;;;;;1.20;0.90;;;;;;;;;;5047739;28;20045;-90
2022/10/24 01:40:06;;;;;;;0.10;0.10;;;;;;;;;;5046529;28;20053;-91
2022/10/24 01:42:36;;;;;;;0.20;0.15;;;;;;;;;;5042830;28;20445;-91
2022/10/24 01:45:07;;;;;;;4.45;0.80;;;;;;;;;;5032572;28;20418;-91
2022/10/24 01:47:39;;;;;;;5.38;0.43;;;;;;;;;;5044971;28;20383;-91
2022/10/24 01:50:10;;;;;;;3.63;0.20;;;;;;;;;;5046451;28;20053;-91
2022/10/24 01:52:40;;;;;;;1.20;0.10;;;;;;;;;;5062582;28;20048;-90
2022/10/24 01:55:09;;;;;;;0.20;0.20;;;;;;;;;;5059823;28;20044;-90
2022/10/24 01:57:38;;;;;;;0.20;0.20;;;;;;;;;;5072395;28;20519;-90
2022/10/24 02:00:12;;;;;;;0.20;0.15;;;;;;;;;;5056318;28;20045;-90
2022/10/24 02:02:44;;;;;;;0.20;0.15;;;;;;;;;;5068314;28;20048;-90
2022/10/24 02:05:16;;;;;;;0.17;0.17;;;;;;;;;;5064748;28;20044;-91
2022/10/24 02:07:46;;;;;;;0.00;0.00;;;;;;;;;;5071340;28;20045;-91
2022/10/24 02:10:17;;;;;;;3.50;0.70;;;;;;;;;;5072781;28;20045;-90
2022/10/24 02:12:49;;;;;;;0.20;0.20;;;;;;;;;;5067288;28;20435;-90
2022/10/24 02:15:21;;;;;;;0.20;0.20;;;;;;;;;;5063777;28;20051;-89
2022/10/24 02:17:50;;;;;;;0.75;0.43;;;;;;;;;;5064986;28;20054;-88
2022/10/24 02:20:18;;;;;;;0.85;0.20;;;;;;;;;;5057489;28;20045;-89
2022/10/24 02:22:50;;;;;;;0.57;0.22;;;;;;;;;;5070446;28;20044;-87
2022/10/24 02:25:20;;;;;;;4.55;0.35;;;;;;;;;;5071455;28;20040;-88
2022/10/24 02:27:50;;;;;;;0.10;0.10;;;;;;;;;;5062959;28;20051;-90
2022/10/24 02:30:21;;;;;;;0.73;0.68;;;;;;;;;;5073284;28;20496;-90
2022/10/24 02:32:52;;;;;;;0.20;0.20;;;;;;;;;;5071153;28;20060;-90
2022/10/24 02:35:22;;;;;;;0.57;0.32;;;;;;;;;;5071091;28;20051;-90
2022/10/24 02:37:54;;;;;;;1.35;0.20;;;;;;;;;;5071911;28;20048;-89
2022/10/24 02:40:23;;;;;;;0.20;0.20;;;;;;;;;;5064561;28;20412;-90
2022/10/24 02:42:53;;;;;;;0.20;0.10;;;;;;;;;;5063223;28;20053;-89
2022/10/24 02:45:26;;;;;;;0.65;0.20;;;;;;;;;;5063241;28;20048;-90
2022/10/24 02:47:57;;;;;;;0.73;0.20;;;;;;;;;;5065970;28;20048;-89
2022/10/24 02:50:26;;;;;;;0.57;0.22;;;;;;;;;;5066036;28;20052;-89
2022/10/24 02:52:54;;;;;;;0.25;0.25;;;;;;;;;;5066356;28;20057;-89
2022/10/24 02:55:22;;;;;;;1.45;0.20;;;;;;;;;;5070704;28;20485;-89
2022/10/24 02:57:51;;;;;;;0.57;0.30;;;;;;;;;;5070931;28;20444;-89
2022/10/24 03:00:19;;;;;;;0.40;0.20;;;;;;;;;;5070623;28;20071;-90
2022/10/24 03:02:51;;;;;;;0.10;0.10;;;;;;;;;;5066083;28;20052;-90
2022/10/24 03:05:20;;;;;;;1.13;0.13;;;;;;;;;;5064343;28;20044;-90
2022/10/24 03:07:49;;;;;;;0.10;0.10;;;;;;;;;;5059853;28;20072;-91
2022/10/24 03:10:18;;;;;;;3.47;0.20;;;;;;;;;;5064000;28;20102;-89
2022/10/24 03:12:46;;;;;;;0.80;0.22;;;;;;;;;;5056331;28;20083;-90
2022/10/24 03:15:15;;;;;;;0.43;0.20;;;;;;;;;;5065611;28;20051;-90
2022/10/24 03:17:46;;;;;;;3.70;0.73;;;;;;;;;;5058063;28;20052;-90
2022/10/24 03:20:18;;;;;;;0.10;0.10;;;;;;;;;;5067269;28;20052;-90
2022/10/24 03:22:46;;;;;;;0.80;0.47;;;;;;;;;;5072417;28;20047;-90
2022/10/24 03:25:15;;;;;;;2.83;0.35;;;;;;;;;;5061516;28;20421;-90
2022/10/24 03:27:43;;;;;;;2.10;0.17;;;;;;;;;;5066153;28;20048;-90
2022/10/24 03:30:13;;;;;;;0.73;0.40;;;;;;;;;;5062728;28;20084;-90
2022/10/24 03:32:41;;;;;;;0.50;0.22;;;;;;;;;;5072557;28;20055;-90
2022/10/24 03:35:10;;;;;;;0.50;0.05;;;;;;;;;;5060320;28;20041;-89
2022/10/24 03:37:43;;;;;;;3.03;0.17;;;;;;;;;;5066012;28;20187;-89
2022/10/24 03:40:11;;;;;;;0.17;0.17;;;;;;;;;;5066916;28;20052;-89
2022/10/24 03:42:39;;;;;;;0.90;0.17;;;;;;;;;;5063584;28;20059;-89
2022/10/24 03:45:08;;;;;;;1.50;0.17;;;;;;;;;;5064411;28;20060;-90
2022/10/24 03:47:37;;;;;;;0.77;0.10;;;;;;;;;;5060471;28;20055;-90
2022/10/24 03:50:05;;;;;;;0.20;0.20;;;;;;;;;;5067872;28;20528;-90
2022/10/24 03:52:34;;;;;;;0.43;0.10;;;;;;;;;;5062472;28;20051;-91
2022/10/24 03:55:03;;;;;;;0.32;0.20;;;;;;;;;;5062910;28;20048;-90
2022/10/24 03:57:31;;;;;;;0.85;0.77;;;;;;;;;;5067293;28;20080;-91
2022/10/24 04:00:00;;;;;;;0.10;0.08;;;;;;;;;;5053412;28;20405;-90
2022/10/24 04:02:28;;;;;;;0.30;0.25;;;;;;;;;;5062250;28;20499;-90
2022/10/24 04:04:56;;;;;;;0.20;0.20;;;;;;;;;;5064940;28;20059;-91
2022/10/24 04:07:25;;;;;;;3.88;0.40;;;;;;;;;;5068682;28;20056;-90
2022/10/24 04:09:54;;;;;;;4.32;0.40;;;;;;;;;;5068229;28;20045;-91
2022/10/24 04:12:24;;;;;;;0.13;0.13;;;;;;;;;;5065204;28;20052;-90
2022/10/24 04:14:52;;;;;;;1.85;1.35;;;;;;;;;;5066002;28;20504;-84
2022/10/24 04:17:20;;;;;;;0.15;0.10;;;;;;;;;;5062516;28;20045;-86
2022/10/24 04:19:49;;;;;;;0.17;0.15;;;;;;;;;;5054703;28;20534;-88
2022/10/24 04:22:17;;;;;;;0.20;0.20;;;;;;;;;;5065925;28;20059;-87
2022/10/24 04:24:45;;;;;;;3.70;0.52;;;;;;;;;;5059077;28;20214;-84
2022/10/24 04:27:14;;;;;;;0.35;0.30;;;;;;;;;;5061739;28;20052;-84
2022/10/24 04:29:44;;;;;;;2.00;0.57;;;;;;;;;;5065837;28;20049;-83
2022/10/24 04:32:12;;;;;;;0.45;0.30;;;;;;;;;;5058774;28;20059;-83
2022/10/24 04:34:40;;;;;;;1.10;0.43;;;;;;;;;;5057790;28;20106;-83
2022/10/24 04:37:08;;;;;;;1.42;0.30;;;;;;;;;;5052649;28;20445;-83
2022/10/24 04:39:37;;;;;;;0.28;0.25;;;;;;;;;;5063101;28;20052;-83
2022/10/24 04:42:05;;;;;;;0.43;0.30;;;;;;;;;;5058091;28;20048;-83
2022/10/24 04:44:33;;;;;;;0.60;0.60;;;;;;;;;;5062480;28;20056;-84
2022/10/24 04:47:03;;;;;;;0.20;0.20;;;;;;;;;;5056720;28;20138;-84
2022/10/24 04:49:31;;;;;;;1.10;0.40;;;;;;;;;;5059452;28;20036;-83
2022/10/24 04:51:59;;;;;;;1.45;0.20;;;;;;;;;;5057372;28;20048;-86
2022/10/24 04:54:28;;;;;;;1.20;0.50;;;;;;;;;;5058619;28;20071;-82
2022/10/24 04:56:56;;;;;;;3.22;1.25;;;;;;;;;;5060916;28;20064;-84
2022/10/24 04:59:24;;;;;;;0.50;0.30;;;;;;;;;;5056711;28;20056;-83
2022/10/24 05:01:53;;;;;;;0.80;0.30;;;;;;;;;;5054823;28;20048;-83
2022/10/24 05:04:23;;;;;;;1.38;0.20;;;;;;;;;;5056569;28;20083;-85
2022/10/24 05:06:52;;;;;;;0.17;0.17;;;;;;;;;;5056186;28;20044;-84
2022/10/24 05:09:20;;;;;;;0.00;0.00;;;;;;;;;;5055682;28;20053;-84
2022/10/24 05:11:48;;;;;;;0.63;0.20;;;;;;;;;;5062511;28;20049;-84
2022/10/24 05:14:17;;;;;;;3.25;0.20;;;;;;;;;;5056903;28;20489;-84
2022/10/24 05:16:47;;;;;;;1.08;0.40;;;;;;;;;;5063473;28;20049;-84
2022/10/24 05:19:18;;;;;;;0.10;0.10;;;;;;;;;;5060344;28;20094;-84
2022/10/24 05:21:48;;;;;;;0.32;0.25;;;;;;;;;;5059782;28;20497;-85
2022/10/24 05:24:16;;;;;;;0.08;0.08;;;;;;;;;;5064324;28;20041;-83
2022/10/24 05:26:44;;;;;;;1.15;0.30;;;;;;;;;;5055780;28;20055;-86
2022/10/24 05:29:13;;;;;;;0.68;0.30;;;;;;;;;;5061393;28;20048;-85
2022/10/24 05:31:41;;;;;;;0.45;0.28;;;;;;;;;;5070903;28;20063;-85
2022/10/24 05:34:09;;;;;;;0.65;0.60;;;;;;;;;;5068568;28;20037;-84
2022/10/24 05:36:37;;;;;;;1.13;0.63;;;;;;;;;;5070647;28;20056;-84
2022/10/24 05:39:07;;;;;;;1.00;0.63;;;;;;;;;;5061941;28;20501;-85
2022/10/24 05:41:35;;;;;;;1.60;0.20;;;;;;;;;;5067908;28;20060;-84
2022/10/24 05:44:04;;;;;;;2.08;0.80;;;;;;;;;;5071560;28;20049;-83
2022/10/24 05:46:32;;;;;;;0.32;0.30;;;;;;;;;;5067687;28;20447;-85
2022/10/24 05:49:00;;;;;;;0.30;0.25;;;;;;;;;;5075418;28;20048;-85
2022/10/24 05:51:29;;;;;;;1.45;1.23;;;;;;;;;;5068190;28;20473;-84
2022/10/24 05:53:57;;;;;;;2.28;0.38;;;;;;;;;;5065230;28;20568;-85
2022/10/24 05:56:27;;;;;;;1.65;0.57;;;;;;;;;;5072205;28;20044;-85
2022/10/24 05:58:56;;;;;;;1.38;0.95;;;;;;;;;;5062903;28;20053;-85
2022/10/24 06:01:25;;;;;;;2.47;0.22;;;;;;;;;;5069091;28;20480;-83
2022/10/24 06:03:53;;;;;;;1.67;0.70;;;;;;;;;;5067477;28;20045;-85
2022/10/24 06:06:22;;;;;;;1.00;0.50;;;;;;;;;;5069127;28;20048;-84
2022/10/24 06:08:51;;;;;;;1.10;0.40;;;;;;;;;;5069845;28;20048;-85
2022/10/24 06:11:19;;;;;;;0.85;0.20;;;;;;;;;;5066097;28;20041;-84
2022/10/24 06:13:50;;;;;;;0.95;0.47;;;;;;;;;;5069110;28;20051;-83
2022/10/24 06:16:18;;;;;;;3.22;0.73;;;;;;;;;;5065874;28;20044;-84
2022/10/24 06:18:47;;;;;;;0.25;0.17;;;;;;;;;;5067439;28;20504;-83
2022/10/24 06:21:15;;;;;;;0.88;0.43;;;;;;;;;;5062935;28;20045;-85
2022/10/24 06:23:43;;;;;;;2.13;0.28;;;;;;;;;;5063940;28;20049;-85
2022/10/24 06:26:13;;;;;;;3.30;0.90;;;;;;;;;;5065869;28;20412;-85
2022/10/24 06:28:42;;;;;;;0.13;0.08;;;;;;;;;;5066176;28;20041;-84
2022/10/24 06:31:12;;;;;;;1.08;0.40;;;;;;;;;;5054092;28;20059;-85
2022/10/24 06:33:41;;;;;;;1.08;0.30;;;;;;;;;;5062214;28;20500;-85
2022/10/24 06:36:09;;;;;;;6.45;0.38;;;;;;;;;;5071116;28;20072;-86
2022/10/24 06:38:38;;;;;;;6.60;1.02;;;;;;;;;;5064991;28;20060;-85
2022/10/24 06:41:07;;;;;;;0.30;0.30;;;;;;;;;;5060883;28;20509;-85
2022/10/24 06:43:36;;;;;;;0.22;0.20;;;;;;;;;;5058723;28;20115;-85
2022/10/24 06:46:08;;;;;;;1.00;0.20;;;;;;;;;;5067657;28;20503;-85
2022/10/24 06:48:38;;;;;;;1.00;0.65;;;;;;;;;;5072418;28;20101;-85
2022/10/24 06:51:07;;;;;;;0.93;0.30;;;;;;;;;;5055944;28;20088;-84
2022/10/24 06:53:35;;;;;;;0.77;0.30;;;;;;;;;;5070611;28;20148;-86
2022/10/24 06:56:05;;;;;;;2.85;0.88;;;;;;;;;;5073634;28;20124;-86
2022/10/24 06:58:33;;;;;;;0.20;0.20;;;;;;;;;;5068674;28;20144;-85
2022/10/24 07:01:07;;;;;;;0.80;0.30;;;;;;;;;;5064419;28;20090;-86
2022/10/24 07:03:37;;;;;;;0.60;0.60;;;;;;;;;;5064133;28;20052;-85
2022/10/24 07:06:07;;;;;;;1.75;0.65;;;;;;;;;;5071940;28;20044;-86
2022/10/24 07:08:35;;;;;;;1.48;0.50;;;;;;;;;;5065427;28;20049;-85
2022/10/24 07:11:04;;;;;;;1.10;0.30;;;;;;;;;;5069662;28;20051;-86
2022/10/24 07:13:32;;;;;;;1.10;0.32;;;;;;;;;;5065060;28;20052;-85
2022/10/24 07:16:01;;;;;;;0.40;0.40;;;;;;;;;;5069475;28;20572;-86
2022/10/24 07:18:29;;;;;;;0.30;0.30;;;;;;;;;;5070459;28;20087;-84
2022/10/24 07:21:02;;;;;;;0.47;0.30;;;;;;;;;;5059143;28;20060;-86
2022/10/24 07:23:31;;;;;;;3.22;0.20;;;;;;;;;;5065186;28;20060;-86
2022/10/24 07:26:02;;;;;;;0.10;0.10;;;;;;;;;;5064675;28;20044;-86
2022/10/24 07:28:31;;;;;;;0.93;0.30;;;;;;;;;;5061735;28;20048;-86
2022/10/24 07:31:00;;;;;;;0.20;0.20;;;;;;;;;;5062846;28;20475;-85
2022/10/24 07:33:29;;;;;;;0.08;0.08;;;;;;;;;;5067079;28;20048;-85
2022/10/24 07:35:57;;;;;;;0.75;0.20;;;;;;;;;;5059916;28;20057;-86
2022/10/24 07:38:27;;;;;;;0.20;0.20;;;;;;;;;;5053372;28;20049;-86
2022/10/24 07:40:56;;;;;;;1.65;1.45;;;;;;;;;;5064062;28;20055;-86
2022/10/24 07:43:24;;;;;;;0.45;0.20;;;;;;;;;;5062754;28;20059;-86
2022/10/24 07:45:53;;;;;;;0.40;0.30;;;;;;;;;;5067678;28;20156;-85
2022/10/24 07:48:21;;;;;;;1.02;0.73;;;;;;;;;;5067013;28;20049;-86
2022/10/24 07:50:50;;;;;;;0.88;0.88;;;;;;;;;;5068297;28;20074;-87
2022/10/24 07:53:18;;;;;;;0.95;0.40;;;;;;;;;;5059880;28;20132;-84
2022/10/24 07:55:48;;;;;;;1.80;0.17;;;;;;;;;;5061598;28;20040;-85
2022/10/24 07:58:16;;;;;;;2.17;0.32;;;;;;;;;;5069818;28;20080;-86
2022/10/24 08:00:46;;;;;;;1.92;0.30;;;;;;;;;;5064660;28;20055;-85
2022/10/24 08:03:14;;;;;;;1.38;0.75;;;;;;;;;;5058722;28;20049;-86
2022/10/24 08:05:43;;;;;;;0.20;0.20;;;;;;;;;;5063895;28;20041;-86
2022/10/24 08:08:12;;;;;;;2.08;1.45;;;;;;;;;;5058491;28;20611;-85
2022/10/24 08:11:02;;;;;;;0.15;0.15;;;;;;;;;;5059859;28;20049;-85
2022/10/24 08:13:31;;;;;;;0.30;0.30;;;;;;;;;;5066479;28;20045;-85
2022/10/24 08:15:59;;;;;;;0.88;0.47;;;;;;;;;;5063326;28;20076;-85
2022/10/24 08:18:27;;;;;;;1.55;0.40;;;;;;;;;;5062742;28;20045;-85
2022/10/24 08:20:59;;;;;;;4.28;1.08;;;;;;;;;;5056214;28;20139;-85
2022/10/24 08:23:28;;;;;;;1.00;0.75;;;;;;;;;;5063949;28;20516;-84
2022/10/24 08:25:56;;;;;;;0.38;0.38;;;;;;;;;;5070549;28;20049;-84
2022/10/24 08:28:26;;;;;;;0.25;0.25;;;;;;;;;;5063113;28;20059;-85
2022/10/24 08:30:58;;;;;;;1.05;0.40;;;;;;;;;;5062558;28;20128;-85
2022/10/24 08:33:28;;;;;;;0.45;0.40;;;;;;;;;;5056836;28;20094;-85
2022/10/24 08:35:58;;;;;;;1.17;0.30;;;;;;;;;;5058166;28;20049;-88
2022/10/24 08:38:27;;;;;;;0.80;0.38;;;;;;;;;;5064037;28;20045;-86
2022/10/24 08:40:56;;;;;;;2.92;0.30;;;;;;;;;;5067842;28;20053;-90
2022/10/24 08:43:27;;;;;;;0.43;0.28;;;;;;;;;;5059197;28;20077;-89
2022/10/24 08:46:03;;;;;;;0.22;0.10;;;;;;;;;;5066445;28;20040;-90
2022/10/24 08:48:37;;;;;;;0.08;0.08;;;;;;;;;;5061790;28;20055;-89
2022/10/24 08:51:11;;;;;;;0.45;0.45;;;;;;;;;;5064993;28;20080;-90
2022/10/24 08:53:40;;;;;;;0.90;0.38;;;;;;;;;;5062407;28;20063;-90
2022/10/24 08:56:12;;;;;;;1.55;0.65;;;;;;;;;;5060248;28;20111;-90
2022/10/24 08:58:43;;;;;;;0.70;0.22;;;;;;;;;;5067784;28;20040;-90
2022/10/24 09:01:15;;;;;;;1.70;0.28;;;;;;;;;;5063507;28;20477;-90
2022/10/24 09:03:45;;;;;;;0.70;0.50;;;;;;;;;;5064925;28;20067;-89
2022/10/24 09:06:30;;;;;;;1.73;1.20;;;;;;;;;;5063359;28;20053;-90
2022/10/24 09:08:59;;;;;;;0.77;0.45;;;;;;;;;;5056288;28;20060;-91
2022/10/24 09:11:31;;;;;;;0.73;0.60;;;;;;;;;;5052740;28;20045;-91
2022/10/24 09:14:03;;;;;;;4.22;0.47;;;;;;;;;;5060412;28;20048;-90
2022/10/24 09:16:31;;;;;;;0.95;0.30;;;;;;;;;;5057584;28;20056;-91
2022/10/24 09:19:00;;;;;;;1.13;0.57;;;;;;;;;;5051644;28;20408;-90
2022/10/24 09:21:29;;;;;;;1.73;0.57;;;;;;;;;;5055855;28;20053;-91
2022/10/24 09:23:57;;;;;;;0.77;0.35;;;;;;;;;;5056866;28;20041;-91
2022/10/24 09:26:29;;;;;;;1.60;0.50;;;;;;;;;;5057178;28;20045;-89
2022/10/24 09:28:57;;;;;;;1.65;0.30;;;;;;;;;;5056454;28;20553;-90
2022/10/24 09:31:27;;;;;;;1.48;0.35;;;;;;;;;;5054672;28;20395;-90
2022/10/24 09:33:59;;;;;;;0.47;0.40;;;;;;;;;;5054550;28;20048;-91
2022/10/24 09:36:29;;;;;;;0.20;0.20;;;;;;;;;;5049751;28;20091;-91
2022/10/24 09:39:02;;;;;;;1.00;0.20;;;;;;;;;;5062694;28;20474;-91
2022/10/24 09:41:32;;;;;;;1.65;0.40;;;;;;;;;;5063860;28;20063;-91
2022/10/24 09:44:03;;;;;;;1.50;0.40;;;;;;;;;;5053900;28;20364;-90
2022/10/24 09:46:37;;;;;;;1.17;0.40;;;;;;;;;;5063987;28;20102;-91
2022/10/24 09:49:17;;;;;;;1.95;0.40;;;;;;;;;;5054596;28;20609;-91
2022/10/24 09:51:47;;;;;;;0.90;0.20;;;;;;;;;;5050915;28;20591;-91
2022/10/24 09:54:26;;;;;;;1.35;1.25;;;;;;;;;;5064104;28;20500;-91
2022/10/24 09:56:56;;;;;;;0.80;0.20;;;;;;;;;;5051558;28;20044;-91
2022/10/24 09:59:31;;;;;;;0.80;0.65;;;;;;;;;;5061615;28;20048;-90
2022/10/24 10:02:00;;;;;;;;;;;;;;;;;;5060087;28;20093;-90
2022/10/24 10:04:30;;;;;;;0.35;0.32;;;;;;;;;;5052861;28;19928;-91
2022/10/24 10:06:59;;;;;;;0.85;0.63;;;;;;;;;;5057173;28;20104;-90
2022/10/24 10:09:40;;;;;;;2.08;0.63;;;;;;;;;;5054327;28;20049;-91
2022/10/24 10:12:22;;;;;;;1.55;0.60;;;;;;;;;;5052179;28;20190;-92
2022/10/24 10:14:50;;;;;;;0.68;0.32;;;;;;;;;;5059523;28;20060;-90
2022/10/24 10:17:22;;;;;;;1.65;0.55;;;;;;;;;;5066534;28;20115;-91
2022/10/24 10:19:52;;;;;;;0.32;0.30;;;;;;;;;;5069547;28;20102;-91
2022/10/24 10:22:26;;;;;;;0.73;0.40;;;;;;;;;;5073508;28;20088;-91
2022/10/24 10:24:55;;;;;;;1.98;0.47;;;;;;;;;;5076692;28;20062;-91
2022/10/24 10:27:29;;;;;;;0.43;0.28;;;;;;;;;;5077287;28;20069;-91
2022/10/24 10:30:15;;;;;;;0.50;0.25;;;;;;;;;;5074021;28;20068;-93
2022/10/24 10:32:47;;;;;;;1.75;0.40;;;;;;;;;;5066769;28;20056;-92
2022/10/24 10:35:20;;;;;;;1.15;0.45;;;;;;;;;;5070256;28;20048;-92
2022/10/24 10:37:53;;;;;;;2.90;1.33;;;;;;;;;;5062453;28;20098;-91
2022/10/24 10:40:26;;;;;;;0.95;0.60;;;;;;;;;;5059263;28;20052;-91
2022/10/24 10:43:10;;;;;;;0.88;0.40;;;;;;;;;;5062119;28;20063;-91
2022/10/24 10:45:41;;;;;;;2.30;0.90;;;;;;;;;;5065917;28;20124;-90
2022/10/24 10:48:17;;;;;;;0.75;0.65;;;;;;;;;;5065397;28;20145;-91
2022/10/24 10:50:50;;;;;;;0.73;0.40;;;;;;;;;;5062060;28;20505;-90
2022/10/24 10:53:25;;;;;;;1.55;0.50;;;;;;;;;;5063896;28;20485;-90
2022/10/24 10:55:53;;;;;;;;;;;;;;;;;;5067997;28;20059;-90
2022/10/24 10:58:26;;;;;;;0.68;0.32;;;;;;;;;;5057738;28;19921;-91
2022/10/24 11:00:59;;;;;;;0.57;0.40;;;;;;;;;;5068610;28;20576;-89
2022/10/24 11:03:34;;;;;;;0.30;0.30;;;;;;;;;;5061041;28;20049;-90
2022/10/24 11:06:13;;;;;;;3.83;1.48;;;;;;;;;;5053881;28;20045;-91
2022/10/24 11:11:46;;;;;;;0.35;0.25;;;;;;;;;;5062836;28;20045;-88
2022/10/24 11:14:18;;;;;;;7.15;0.70;;;;;;;;;;5069464;28;20057;-88
2022/10/24 11:16:47;;;;;;;3.00;0.30;;;;;;;;;;5069827;28;20179;-86
2022/10/24 11:19:22;;;;;;;1.50;1.25;;;;;;;;;;5060095;28;20048;-88
2022/10/24 11:21:52;;;;;;;2.35;0.70;;;;;;;;;;5054847;28;20044;-85
2022/10/24 11:24:22;;;;;;;1.50;0.35;;;;;;;;;;5065649;28;20060;-86
2022/10/24 11:26:53;;;;;;;1.52;0.25;;;;;;;;;;5050832;28;20071;-87
2022/10/24 11:29:25;;;;;;;0.15;0.13;;;;;;;;;;5063565;28;20147;-89
2022/10/24 11:31:57;;;;;;;2.15;0.40;;;;;;;;;;5061502;28;20061;-90
2022/10/24 11:34:31;;;;;;;0.40;0.38;;;;;;;;;;5060944;28;20060;-87
2022/10/24 11:37:05;;;;;;;1.25;0.28;;;;;;;;;;5064004;28;20571;-86
2022/10/24 11:39:35;;;;;;;2.50;0.40;;;;;;;;;;5067276;28;20492;-88
2022/10/24 11:42:07;;;;;;;0.22;0.22;;;;;;;;;;5061290;28;20049;-86
2022/10/24 11:44:46;;;;;;;1.20;0.57;;;;;;;;;;5061989;28;20049;-89
2022/10/24 11:47:31;;;;;;;1.05;0.35;;;;;;;;;;5060860;28;20102;-89
2022/10/24 11:50:00;;;;;;;;;;;;;;;;;;5061159;28;20051;-89
2022/10/24 11:52:32;;;;;;;1.15;0.30;;;;;;;;;;5050066;28;20045;-88
2022/10/24 11:55:04;;;;;;;1.05;0.50;;;;;;;;;;5050585;28;20045;-88
2022/10/24 11:57:34;;;;;;;1.05;0.50;;;;;;;;;;5058253;28;20389;-90
2022/10/24 12:00:03;;;;;;;0.32;0.20;;;;;;;;;;5053959;28;20152;-86
2022/10/24 12:02:45;;;;;;;4.30;0.77;;;;;;;;;;5055986;28;20064;-85
2022/10/24 12:05:40;;;;;;;4.50;0.43;;;;;;;;;;5057413;28;20076;-86
2022/10/24 12:08:20;;;;;;;1.08;0.70;;;;;;;;;;5057127;28;20059;-86
2022/10/24 12:10:57;;;;;;;0.45;0.22;;;;;;;;;;5048582;28;20072;-86
2022/10/24 12:13:44;;;;;;;0.88;0.38;;;;;;;;;;5024472;28;20040;-87
2022/10/24 12:16:16;;;;;;;0.45;0.20;;;;;;;;;;5059373;28;20054;-87
2022/10/24 12:18:46;;;;;;;3.88;0.30;;;;;;;;;;5063323;28;20048;-87
2022/10/24 12:21:16;;;;;;;0.60;0.57;;;;;;;;;;5058035;28;20399;-86
2022/10/24 12:23:55;;;;;;;0.60;0.55;;;;;;;;;;5054086;28;20076;-87
2022/10/24 12:26:26;;;;;;;0.85;0.22;;;;;;;;;;5055788;28;20568;-86
2022/10/24 12:28:55;;;;;;;2.63;0.30;;;;;;;;;;5055918;28;20498;-86
2022/10/24 12:31:27;;;;;;;0.13;0.13;;;;;;;;;;5055351;28;20508;-85
2022/10/24 12:34:14;;;;;;;0.50;0.20;;;;;;;;;;5056813;28;20055;-87
2022/10/24 12:37:02;;;;;;;2.10;0.63;;;;;;;;;;5056707;28;20040;-86
2022/10/24 12:39:33;;;;;;;6.82;0.55;;;;;;;;;;5053690;28;20532;-87
2022/10/24 12:42:02;;;;;;;0.65;0.47;;;;;;;;;;5049817;28;20048;-87
2022/10/24 12:44:38;;;;;;;0.32;0.32;;;;;;;;;;5053146;28;20055;-87
2022/10/24 12:47:25;;;;;;;2.88;1.70;;;;;;;;;;5057097;28;20548;-87
2022/10/24 12:49:54;;;;;;;1.85;0.35;;;;;;;;;;5049325;28;20450;-86
2022/10/24 12:52:37;;;;;;;0.70;0.40;;;;;;;;;;5057079;28;20363;-86
2022/10/24 12:55:29;;;;;;;1.50;0.63;;;;;;;;;;5053917;28;20054;-87
2022/10/24 12:57:57;;;;;;;0.70;0.63;;;;;;;;;;5053634;28;20056;-87
2022/10/24 13:00:29;;;;;;;0.38;0.30;;;;;;;;;;5049364;28;20056;-87
2022/10/24 13:03:06;;;;;;;0.20;0.20;;;;;;;;;;5059143;28;20052;-88
2022/10/24 13:05:41;;;;;;;1.20;0.28;;;;;;;;;;5049053;28;20049;-88
2022/10/24 13:08:21;;;;;;;1.90;0.90;;;;;;;;;;5050927;28;20548;-87
2022/10/24 13:10:57;;;;;;;0.47;0.32;;;;;;;;;;5049155;28;20511;-87
2022/10/24 13:13:42;;;;;;;0.52;0.30;;;;;;;;;;5049714;28;20420;-87
2022/10/24 13:16:17;;;;;;;0.30;0.30;;;;;;;;;;5051764;28;20140;-87
2022/10/24 13:18:52;;;;;;;0.85;0.65;;;;;;;;;;5056996;28;20040;-88
2022/10/24 13:21:25;;;;;;;1.77;1.67;;;;;;;;;;5050988;28;20044;-87
2022/10/24 13:23:54;;;;;;;0.40;0.30;;;;;;;;;;5060095;28;20140;-88
2022/10/24 13:26:37;;;;;;;0.38;0.38;;;;;;;;;;5052007;28;20123;-87
2022/10/24 13:29:05;;;;;;;3.70;0.75;;;;;;;;;;5054830;28;20305;-88
2022/10/24 13:31:42;;;;;;;0.50;0.50;;;;;;;;;;5054309;28;20507;-87
2022/10/24 13:34:16;;;;;;;0.30;0.28;;;;;;;;;;5058117;28;20405;-88
2022/10/24 13:36:48;;;;;;;2.15;0.20;;;;;;;;;;5064991;28;20055;-88
2022/10/24 13:39:19;;;;;;;1.05;0.38;;;;;;;;;;5054147;28;20424;-88
2022/10/24 13:41:50;;;;;;;0.80;0.80;;;;;;;;;;5059544;28;20139;-89
2022/10/24 13:44:22;;;;;;;1.88;0.43;;;;;;;;;;5060692;28;20483;-88
2022/10/24 13:46:52;;;;;;;1.45;0.32;;;;;;;;;;5057493;28;20052;-88
2022/10/24 13:49:26;;;;;;;0.17;0.17;;;;;;;;;;5061209;28;20041;-88
2022/10/24 13:51:55;;;;;;;3.45;0.40;;;;;;;;;;5051338;28;20066;-88
2022/10/24 13:54:25;;;;;;;0.13;0.13;;;;;;;;;;5058483;28;20056;-88
2022/10/24 13:56:55;;;;;;;3.25;0.65;;;;;;;;;;5054621;28;20041;-88
2022/10/24 13:59:30;;;;;;;0.25;0.22;;;;;;;;;;5053107;28;20508;-86
2022/10/24 14:02:00;;;;;;;1.33;0.60;;;;;;;;;;5064232;28;20049;-88
2022/10/24 14:04:29;;;;;;;0.10;0.10;;;;;;;;;;5057081;28;20156;-88
2022/10/24 14:07:01;;;;;;;0.82;0.32;;;;;;;;;;5062011;28;20490;-87
2022/10/24 14:09:31;;;;;;;0.52;0.20;;;;;;;;;;5063615;28;20049;-87
2022/10/24 14:12:01;;;;;;;0.22;0.22;;;;;;;;;;5058801;28;20052;-87
2022/10/24 14:14:32;;;;;;;1.65;0.20;;;;;;;;;;5069467;28;20095;-88
2022/10/24 14:17:09;;;;;;;0.22;0.22;;;;;;;;;;5059692;28;20072;-87
2022/10/24 14:19:40;;;;;;;5.10;0.55;;;;;;;;;;5059743;28;20056;-88
2022/10/24 14:22:19;;;;;;;0.38;0.35;;;;;;;;;;5058811;28;20551;-87
2022/10/24 14:24:48;;;;;;;0.30;0.30;;;;;;;;;;5060464;28;20513;-88
2022/10/24 14:27:19;;;;;;;0.20;0.20;;;;;;;;;;5060102;28;20052;-87
2022/10/24 14:29:52;;;;;;;0.30;0.30;;;;;;;;;;5059646;28;20843;-88
2022/10/24 14:32:21;;;;;;;0.60;0.55;;;;;;;;;;5058688;28;20045;-88
2022/10/24 14:34:50;;;;;;;0.20;0.10;;;;;;;;;;5058627;28;20055;-86
2022/10/24 14:37:22;;;;;;;0.65;0.13;;;;;;;;;;5054284;28;20048;-88
2022/10/24 14:39:55;;;;;;;1.88;0.20;;;;;;;;;;5055780;28;20071;-88
2022/10/24 14:42:25;;;;;;;0.13;0.13;;;;;;;;;;5054437;28;20044;-89
2022/10/24 14:44:55;;;;;;;1.48;0.70;;;;;;;;;;5056771;28;20041;-87
2022/10/24 14:47:27;;;;;;;0.38;0.20;;;;;;;;;;5062254;28;20048;-87
2022/10/24 14:49:56;;;;;;;0.30;0.30;;;;;;;;;;5058999;28;20076;-88
2022/10/24 14:52:26;;;;;;;1.27;0.60;;;;;;;;;;5059870;28;20055;-87
2022/10/24 14:54:58;;;;;;;0.55;0.40;;;;;;;;;;5072683;28;20036;-86
2022/10/24 14:57:29;;;;;;;4.28;0.20;;;;;;;;;;5067184;28;20079;-89
2022/10/24 14:59:58;;;;;;;0.47;0.45;;;;;;;;;;5063907;28;20052;-87
2022/10/24 15:02:28;;;;;;;0.63;0.30;;;;;;;;;;5059905;28;20057;-89
2022/10/24 15:05:11;;;;;;;2.78;0.28;;;;;;;;;;5059392;28;20057;-87
2022/10/24 15:07:40;;;;;;;0.17;0.15;;;;;;;;;;5051829;28;20048;-88
2022/10/24 15:10:33;;;;;;;3.55;0.17;;;;;;;;;;5056479;28;20060;-87
2022/10/24 15:13:05;;;;;;;0.17;0.17;;;;;;;;;;5061737;28;20742;-87
2022/10/24 15:15:34;;;;;;;7.95;1.70;;;;;;;;;;5063361;28;20124;-88
2022/10/24 15:18:08;;;;;;;0.10;0.10;;;;;;;;;;5055829;28;20053;-88
2022/10/24 15:20:40;;;;;;;0.20;0.10;;;;;;;;;;5068670;23;20052;-93
2022/10/24 15:23:19;;;;;;;0.70;0.20;;;;;;;;;;5069628;28;20055;-91
2022/10/24 15:25:58;;;;;;;0.47;0.30;;;;;;;;;;5063139;28;20131;-94
2022/10/24 15:28:38;;;;;;;3.45;0.50;;;;;;;;;;5065758;28;20041;-90
2022/10/24 15:31:10;;;;;;;0.32;0.32;;;;;;;;;;5059455;28;20052;-91
2022/10/24 15:33:38;;;;;;;0.20;0.10;;;;;;;;;;5063076;28;20051;-91
2022/10/24 15:36:18;;;;;;;1.23;0.73;;;;;;;;;;5067368;28;20412;-89
2022/10/24 15:38:47;;;;;;;0.25;0.10;;;;;;;;;;5070705;28;20048;-93
2022/10/24 15:41:15;;;;;;;0.15;0.15;;;;;;;;;;5071236;28;20060;-93
2022/10/24 15:43:45;;;;;;;0.32;0.32;;;;;;;;;;5068568;28;20087;-92
2022/10/24 15:46:14;;;;;;;2.83;0.30;;;;;;;;;;5070122;28;20057;-91
2022/10/24 15:48:45;;;;;;;0.20;0.15;;;;;;;;;;5069356;28;20049;-91
2022/10/24 15:51:15;;;;;;;0.30;0.17;;;;;;;;;;5069994;28;20052;-88
2022/10/24 15:53:44;;;;;;;0.10;0.10;;;;;;;;;;5064590;28;20128;-96